TimeEDT,TemperatureF,Dew PointF,Humidity,Sea Level PressureIn,VisibilityMPH,Wind Direction,Wind SpeedMPH,Gust SpeedMPH,PrecipitationIn,Events,Conditions,WindDirDegrees,DateUTC
12:15 AM,53.6,48.2,82,29.55,10.0,SW,6.9,-,N/A,,Partly Cloudy,220,2012-11-01 04:15:00
12:35 AM,53.6,48.2,82,29.55,10.0,SW,5.8,-,N/A,,Mostly Cloudy,230,2012-11-01 04:35:00
12:55 AM,53.6,48.2,82,29.55,10.0,SW,8.1,-,N/A,,Overcast,220,2012-11-01 04:55:00
1:15 AM,53.6,48.2,82,29.55,10.0,SSW,10.4,-,N/A,,Overcast,210,2012-11-01 05:15:00
1:35 AM,53.6,46.4,77,29.55,10.0,SW,8.1,-,N/A,,Mostly Cloudy,220,2012-11-01 05:35:00
1:55 AM,51.8,46.4,82,29.56,10.0,SW,6.9,-,N/A,,Mostly Cloudy,220,2012-11-01 05:55:00
2:15 AM,53.6,46.4,77,29.55,10.0,SW,5.8,-,N/A,,Overcast,220,2012-11-01 06:15:00
2:35 AM,51.8,46.4,82,29.55,10.0,SW,5.8,-,N/A,,Overcast,230,2012-11-01 06:35:00
2:55 AM,51.8,46.4,82,29.54,10.0,SW,4.6,-,N/A,,Overcast,230,2012-11-01 06:55:00
3:15 AM,51.8,46.4,82,29.53,10.0,SSW,3.5,-,N/A,,Mostly Cloudy,210,2012-11-01 07:15:00
3:35 AM,51.8,46.4,82,29.53,10.0,SSW,4.6,-,N/A,,Partly Cloudy,210,2012-11-01 07:35:00
3:55 AM,51.8,46.4,82,29.53,10.0,SSW,3.5,-,N/A,,Clear,200,2012-11-01 07:55:00
4:15 AM,51.8,46.4,82,29.53,10.0,SW,3.5,-,N/A,,Clear,220,2012-11-01 08:15:00
4:35 AM,51.8,46.4,82,29.54,10.0,SSW,3.5,-,N/A,,Partly Cloudy,210,2012-11-01 08:35:00
4:55 AM,51.8,46.4,82,29.54,10.0,SW,4.6,-,N/A,,Mostly Cloudy,220,2012-11-01 08:55:00
5:15 AM,51.8,44.6,76,29.54,10.0,SW,6.9,-,N/A,,Mostly Cloudy,220,2012-11-01 09:15:00
5:35 AM,51.8,44.6,76,29.53,10.0,WSW,6.9,-,N/A,,Scattered Clouds,240,2012-11-01 09:35:00
5:55 AM,51.8,44.6,76,29.54,10.0,SW,5.8,-,N/A,,Partly Cloudy,230,2012-11-01 09:55:00
6:15 AM,50.0,44.6,82,29.54,10.0,SW,5.8,-,N/A,,Scattered Clouds,230,2012-11-01 10:15:00
6:35 AM,50.0,44.6,82,29.54,10.0,SW,4.6,-,N/A,,Mostly Cloudy,230,2012-11-01 10:35:00
6:55 AM,51.8,44.6,76,29.54,10.0,SW,4.6,-,N/A,,Overcast,230,2012-11-01 10:55:00
7:15 AM,50.0,44.6,82,29.54,10.0,Calm,Calm,-,N/A,,Mostly Cloudy,0,2012-11-01 11:15:00
7:35 AM,50.0,44.6,82,29.55,10.0,SW,3.5,-,N/A,,Mostly Cloudy,230,2012-11-01 11:35:00
7:55 AM,50.0,44.6,82,29.55,10.0,Calm,Calm,-,N/A,,Overcast,0,2012-11-01 11:55:00
8:15 AM,51.8,44.6,76,29.55,10.0,Calm,Calm,-,N/A,,Overcast,0,2012-11-01 12:15:00
8:35 AM,51.8,44.6,76,29.55,10.0,SSW,3.5,-,N/A,,Overcast,200,2012-11-01 12:35:00
8:55 AM,51.8,44.6,76,29.55,10.0,South,3.5,-,N/A,,Overcast,190,2012-11-01 12:55:00
9:35 AM,53.6,44.6,72,29.55,10.0,South,6.9,-,N/A,,Overcast,170,2012-11-01 13:35:00
9:55 AM,53.6,44.6,72,29.55,10.0,South,6.9,-,N/A,,Overcast,170,2012-11-01 13:55:00
10:15 AM,53.6,44.6,72,29.55,10.0,South,5.8,-,N/A,,Overcast,190,2012-11-01 14:15:00
10:35 AM,53.6,44.6,72,29.54,10.0,South,6.9,-,N/A,,Overcast,180,2012-11-01 14:35:00
10:55 AM,53.6,44.6,72,29.54,10.0,South,5.8,-,N/A,,Overcast,190,2012-11-01 14:55:00
11:15 AM,53.6,46.4,77,29.54,10.0,South,5.8,-,N/A,,Overcast,190,2012-11-01 15:15:00
11:35 AM,53.6,46.4,77,29.53,10.0,SSW,5.8,-,N/A,,Overcast,200,2012-11-01 15:35:00
11:55 AM,51.8,46.4,82,29.53,10.0,WSW,4.6,-,N/A,,Overcast,240,2012-11-01 15:55:00
12:15 PM,51.8,46.4,82,29.52,10.0,Calm,Calm,-,N/A,,Overcast,0,2012-11-01 16:15:00
12:35 PM,53.6,46.4,77,29.51,10.0,SSW,3.5,-,N/A,,Overcast,210,2012-11-01 16:35:00
12:55 PM,53.6,46.4,77,29.51,10.0,South,6.9,-,N/A,,Mostly Cloudy,180,2012-11-01 16:55:00
1:35 PM,53.6,46.4,77,29.50,10.0,South,8.1,-,N/A,,Mostly Cloudy,190,2012-11-01 17:35:00
1:55 PM,53.6,44.6,72,29.49,10.0,SSW,9.2,-,N/A,,Mostly Cloudy,200,2012-11-01 17:55:00
2:15 PM,53.6,44.6,72,29.48,10.0,South,12.7,-,N/A,,Scattered Clouds,190,2012-11-01 18:15:00
2:35 PM,53.6,42.8,67,29.48,10.0,South,8.1,-,N/A,,Clear,190,2012-11-01 18:35:00
2:55 PM,53.6,42.8,67,29.49,10.0,South,8.1,-,N/A,,Scattered Clouds,190,2012-11-01 18:55:00
3:15 PM,53.6,42.8,67,29.49,10.0,SSW,10.4,-,N/A,,Mostly Cloudy,200,2012-11-01 19:15:00
3:35 PM,51.8,42.8,71,29.50,10.0,SSW,10.4,-,N/A,,Partly Cloudy,200,2012-11-01 19:35:00
3:55 PM,51.8,42.8,71,29.50,10.0,SSW,10.4,-,N/A,,Partly Cloudy,200,2012-11-01 19:55:00
4:15 PM,51.8,42.8,71,29.49,10.0,SSW,9.2,-,N/A,,Clear,200,2012-11-01 20:15:00
4:35 PM,51.8,42.8,71,29.49,10.0,SSW,9.2,-,N/A,,Clear,210,2012-11-01 20:35:00
4:55 PM,50.0,42.8,76,29.49,10.0,SW,8.1,-,N/A,,Clear,220,2012-11-01 20:55:00
5:15 PM,48.2,42.8,82,29.50,10.0,SW,6.9,-,N/A,,Clear,220,2012-11-01 21:15:00
5:35 PM,48.2,42.8,82,29.50,10.0,SW,6.9,-,N/A,,Clear,220,2012-11-01 21:35:00
5:55 PM,48.2,42.8,82,29.50,10.0,SW,6.9,-,N/A,,Clear,230,2012-11-01 21:55:00
6:15 PM,48.2,42.8,82,29.50,10.0,SW,5.8,-,N/A,,Clear,220,2012-11-01 22:15:00
6:35 PM,48.2,42.8,82,29.50,10.0,SW,5.8,-,N/A,,Clear,220,2012-11-01 22:35:00
6:55 PM,46.4,42.8,87,29.50,10.0,SSW,4.6,-,N/A,,Clear,210,2012-11-01 22:55:00
7:15 PM,46.4,42.8,87,29.50,10.0,South,3.5,-,N/A,,Clear,190,2012-11-01 23:15:00
7:35 PM,44.6,39.2,81,29.50,10.0,SW,3.5,-,N/A,,Clear,220,2012-11-01 23:35:00
7:55 PM,42.8,41.0,93,29.51,10.0,Calm,Calm,-,N/A,,Clear,0,2012-11-01 23:55:00
8:15 PM,41.0,39.2,93,29.50,10.0,Calm,Calm,-,N/A,,Clear,0,2012-11-02 00:15:00
8:35 PM,41.0,39.2,93,29.50,10.0,Calm,Calm,-,N/A,,Clear,0,2012-11-02 00:35:00
8:55 PM,39.2,39.2,100,29.51,10.0,Calm,Calm,-,N/A,,Scattered Clouds,0,2012-11-02 00:55:00
9:15 PM,39.2,37.4,93,29.51,10.0,Calm,Calm,-,N/A,,Partly Cloudy,0,2012-11-02 01:15:00
9:35 PM,39.2,37.4,93,29.50,10.0,Calm,Calm,-,N/A,,Partly Cloudy,0,2012-11-02 01:35:00
9:55 PM,39.2,39.2,100,29.50,10.0,Calm,Calm,-,N/A,,Scattered Clouds,0,2012-11-02 01:55:00
10:15 PM,39.2,39.2,100,29.50,10.0,Calm,Calm,-,N/A,,Partly Cloudy,0,2012-11-02 02:15:00
10:35 PM,39.2,37.4,93,29.50,10.0,Calm,Calm,-,N/A,,Clear,0,2012-11-02 02:35:00
10:55 PM,39.2,37.4,93,29.50,10.0,Calm,Calm,-,N/A,,Clear,0,2012-11-02 02:55:00
11:15 PM,37.4,37.4,100,29.50,10.0,WSW,3.5,-,N/A,,Clear,240,2012-11-02 03:15:00
11:35 PM,37.4,35.6,93,29.50,10.0,West,3.5,-,N/A,,Clear,280,2012-11-02 03:35:00
11:55 PM,37.4,35.6,93,29.50,10.0,Calm,Calm,-,N/A,,Clear,0,2012-11-02 03:55:00